Time;durP1;ratioP1;P1;durP2;ratioP2;P2;SDS_P1;SDS_P2;PMS_P1;PMS_P2;Temp;Humidity;BMP_temperature;BMP_pressure;BME280_temperature;BME280_humidity;BME280_pressure;Samples;Min_cycle;Max_cycle;Signal;HPM_P1;HPM_P2
2022/08/12 00:43:48;;;;;;;2.33;1.58;;;;;;;;;;5038552;28;20072;-83
2022/08/12 00:46:30;;;;;;;1.85;1.75;;;;;;;;;;5026123;28;20032;-83
2022/08/12 00:48:57;;;;;;;2.40;2.00;;;;;;;;;;5013991;28;20081;-83
2022/08/12 00:52:05;;;;;;;4.60;1.58;;;;;;;;;;5042399;28;20029;-82
2022/08/12 00:54:09;;;;;;;1.75;1.65;;;;;;;;;;5046570;28;20033;-82
2022/08/12 00:56:37;;;;;;;1.63;1.52;;;;;;;;;;5046669;28;20025;-83
2022/08/12 00:59:03;;;;;;;5.03;1.80;;;;;;;;;;5016556;28;20022;-83
2022/08/12 01:01:29;;;;;;;1.92;1.80;;;;;;;;;;5026065;28;20029;-83
2022/08/12 01:12:11;;;;;;;1.80;1.48;;;;;;;;;;5034276;28;20051;-83
2022/08/12 01:14:38;;;;;;;1.88;1.70;;;;;;;;;;5038885;28;20045;-83
2022/08/12 01:17:04;;;;;;;1.95;1.63;;;;;;;;;;5021649;28;20026;-83
2022/08/12 01:19:30;;;;;;;1.67;1.58;;;;;;;;;;5029914;28;20022;-83
2022/08/12 01:22:04;;;;;;;2.25;1.70;;;;;;;;;;5037854;28;20029;-83
2022/08/12 01:25:02;;;;;;;1.52;1.42;;;;;;;;;;5046518;28;20021;-83
2022/08/12 01:27:29;;;;;;;3.28;1.73;;;;;;;;;;5045414;28;20032;-83
2022/08/12 01:29:56;;;;;;;1.88;1.35;;;;;;;;;;5027400;28;20033;-83
2022/08/12 01:32:25;;;;;;;3.08;1.50;;;;;;;;;;5027977;28;20021;-83
2022/08/12 01:35:04;;;;;;;1.92;1.50;;;;;;;;;;5025920;28;20048;-83
2022/08/12 01:37:35;;;;;;;1.75;1.50;;;;;;;;;;5007546;28;20026;-84
2022/08/12 01:40:02;;;;;;;2.17;1.90;;;;;;;;;;5025022;28;20037;-84
2022/08/12 01:42:32;;;;;;;1.60;1.50;;;;;;;;;;5025605;28;20040;-82
2022/08/12 01:44:59;;;;;;;1.80;1.70;;;;;;;;;;5037880;28;20022;-83
2022/08/12 01:47:31;;;;;;;1.77;1.65;;;;;;;;;;5029183;28;20025;-83
2022/08/12 01:50:15;;;;;;;1.88;1.63;;;;;;;;;;5025900;28;20026;-83
2022/08/12 01:52:52;;;;;;;1.85;1.40;;;;;;;;;;5024788;28;20072;-82
2022/08/12 01:55:25;;;;;;;3.13;1.60;;;;;;;;;;5005376;28;20052;-83
2022/08/12 01:58:02;;;;;;;2.92;1.77;;;;;;;;;;5024293;28;20061;-83
2022/08/12 02:00:47;;;;;;;6.50;1.83;;;;;;;;;;5024228;28;20048;-83
2022/08/12 02:12:12;;;;;;;3.75;1.63;;;;;;;;;;5029601;28;20089;-83
2022/08/12 02:14:59;;;;;;;2.08;1.58;;;;;;;;;;5037763;28;20029;-83
2022/08/12 02:17:53;;;;;;;2.40;1.63;;;;;;;;;;5040300;28;20049;-83
2022/08/12 02:20:24;;;;;;;1.92;1.45;;;;;;;;;;5035612;28;20017;-83
2022/08/12 02:22:50;;;;;;;1.83;1.65;;;;;;;;;;5026682;28;20049;-84
2022/08/12 02:25:28;;;;;;;3.55;1.90;;;;;;;;;;5025834;28;20022;-83
2022/08/12 02:27:55;;;;;;;1.85;1.75;;;;;;;;;;5025999;28;20021;-82
2022/08/12 02:30:24;;;;;;;2.30;1.70;;;;;;;;;;5032315;28;20091;-83
2022/08/12 02:32:51;;;;;;;2.15;1.80;;;;;;;;;;5043380;28;20036;-83
2022/08/12 02:35:22;;;;;;;2.15;1.58;;;;;;;;;;5045432;28;20108;-83
2022/08/12 02:37:51;;;;;;;1.60;1.50;;;;;;;;;;5043614;28;20029;-82
2022/08/12 02:40:18;;;;;;;3.80;1.63;;;;;;;;;;5037804;28;20033;-83
2022/08/12 02:42:53;;;;;;;1.95;1.75;;;;;;;;;;5044156;28;20033;-84
2022/08/12 02:45:32;;;;;;;5.72;1.67;;;;;;;;;;5037664;28;20484;-83
2022/08/12 02:48:05;;;;;;;2.28;2.08;;;;;;;;;;5003076;28;20023;-83
2022/08/12 02:50:35;;;;;;;1.98;1.65;;;;;;;;;;5019037;28;20018;-83
2022/08/12 02:53:02;;;;;;;2.97;1.90;;;;;;;;;;5029521;28;20026;-83
2022/08/12 02:55:32;;;;;;;1.90;1.70;;;;;;;;;;5031826;28;20025;-83
2022/08/12 02:57:58;;;;;;;1.65;1.55;;;;;;;;;;5029020;28;20416;-83
2022/08/12 03:00:24;;;;;;;1.95;1.65;;;;;;;;;;5023369;28;20018;-82
2022/08/12 03:02:51;;;;;;;2.88;2.00;;;;;;;;;;5046755;28;20010;-82
2022/08/12 03:05:22;;;;;;;2.38;1.70;;;;;;;;;;5049699;28;20117;-83
2022/08/12 03:07:52;;;;;;;2.20;1.95;;;;;;;;;;5044494;28;20021;-83
2022/08/12 03:10:21;;;;;;;4.35;1.70;;;;;;;;;;5037756;28;20033;-83
2022/08/12 03:12:51;;;;;;;2.15;1.95;;;;;;;;;;5031032;28;20026;-83
2022/08/12 03:15:21;;;;;;;2.47;1.63;;;;;;;;;;5018957;28;20014;-82
2022/08/12 03:17:52;;;;;;;2.13;1.92;;;;;;;;;;5011303;28;20026;-82
2022/08/12 03:20:20;;;;;;;2.65;1.90;;;;;;;;;;5033267;28;20032;-83
2022/08/12 03:22:48;;;;;;;4.30;1.50;;;;;;;;;;5046122;28;20022;-81
2022/08/12 03:25:26;;;;;;;2.97;1.92;;;;;;;;;;5046698;28;20021;-82
2022/08/12 03:27:56;;;;;;;3.10;1.60;;;;;;;;;;5028972;28;20108;-82
2022/08/12 03:30:27;;;;;;;1.85;1.50;;;;;;;;;;5029814;28;20025;-83
2022/08/12 03:32:55;;;;;;;3.80;1.50;;;;;;;;;;5046040;28;20037;-83
2022/08/12 03:35:26;;;;;;;3.33;1.60;;;;;;;;;;5037376;28;20089;-83
2022/08/12 03:37:56;;;;;;;3.30;2.17;;;;;;;;;;5055416;28;20030;-81
2022/08/12 04:02:25;;;;;;;4.18;2.00;;;;;;;;;;5037312;28;20068;-84
2022/08/12 04:04:51;;;;;;;2.35;1.85;;;;;;;;;;5040844;28;20426;-84
2022/08/12 04:07:16;;;;;;;2.83;1.70;;;;;;;;;;5021027;28;20435;-82
2022/08/12 04:09:44;;;;;;;7.40;2.00;;;;;;;;;;5035308;28;20026;-82
2022/08/12 04:14:57;;;;;;;1.90;1.70;;;;;;;;;;5034592;28;20021;-82
2022/08/12 04:17:25;;;;;;;2.50;1.70;;;;;;;;;;5015948;28;20500;-82
2022/08/12 04:19:51;;;;;;;2.30;1.73;;;;;;;;;;5033468;28;20744;-82
2022/08/12 04:22:16;;;;;;;4.97;1.70;;;;;;;;;;5009329;28;20082;-83
2022/08/12 04:24:43;;;;;;;3.75;2.20;;;;;;;;;;5035073;28;20110;-82
2022/08/12 04:27:10;;;;;;;3.95;2.22;;;;;;;;;;5037811;28;20024;-82
2022/08/12 04:29:37;;;;;;;5.00;2.47;;;;;;;;;;5037100;28;20471;-82
2022/08/12 04:32:05;;;;;;;3.42;2.00;;;;;;;;;;5037933;28;20040;-82
2022/08/12 04:34:31;;;;;;;4.93;1.80;;;;;;;;;;5039483;28;20030;-84
2022/08/12 04:36:56;;;;;;;2.10;1.90;;;;;;;;;;5022468;28;20026;-83
2022/08/12 04:39:22;;;;;;;3.22;2.00;;;;;;;;;;5026034;28;20032;-83
2022/08/12 04:41:50;;;;;;;3.25;1.92;;;;;;;;;;5031503;28;20037;-84
2022/08/12 04:44:15;;;;;;;6.95;2.40;;;;;;;;;;5033965;28;20021;-84
2022/08/12 04:46:41;;;;;;;3.80;2.58;;;;;;;;;;5031788;28;20028;-84
2022/08/12 04:49:07;;;;;;;7.10;2.65;;;;;;;;;;5041256;28;20026;-84
2022/08/12 04:51:34;;;;;;;6.07;2.90;;;;;;;;;;5035316;28;20021;-83
2022/08/12 04:54:03;;;;;;;2.67;2.25;;;;;;;;;;5040357;28;20060;-83
2022/08/12 04:56:29;;;;;;;2.58;2.20;;;;;;;;;;5047103;28;20083;-83
2022/08/12 04:58:55;;;;;;;3.20;2.25;;;;;;;;;;5038900;28;20018;-84
2022/08/12 05:01:21;;;;;;;3.72;1.83;;;;;;;;;;5034125;28;20060;-82
2022/08/12 05:03:49;;;;;;;3.67;2.22;;;;;;;;;;5031148;28;20022;-83
2022/08/12 05:06:14;;;;;;;4.85;2.25;;;;;;;;;;5046383;28;20035;-83
2022/08/12 05:08:40;;;;;;;5.75;2.55;;;;;;;;;;5044721;28;20054;-83
2022/08/12 05:11:05;;;;;;;5.85;2.55;;;;;;;;;;5039397;28;20028;-83
2022/08/12 05:13:38;;;;;;;10.77;3.40;;;;;;;;;;5039290;28;20025;-83
2022/08/12 05:16:05;;;;;;;3.28;2.42;;;;;;;;;;5036248;28;20037;-83
2022/08/12 05:18:36;;;;;;;2.28;2.08;;;;;;;;;;5047253;28;20025;-83
2022/08/12 05:21:02;;;;;;;4.55;2.20;;;;;;;;;;5034927;28;20018;-83
2022/08/12 05:23:29;;;;;;;4.55;2.28;;;;;;;;;;5026329;28;20025;-82
2022/08/12 05:25:55;;;;;;;2.78;2.10;;;;;;;;;;5028187;28;20078;-83
2022/08/12 05:28:22;;;;;;;3.38;2.00;;;;;;;;;;5010031;28;20072;-85
2022/08/12 05:30:47;;;;;;;3.83;2.08;;;;;;;;;;5035832;28;20021;-83
2022/08/12 05:33:14;;;;;;;4.38;2.30;;;;;;;;;;5016227;28;20025;-84
2022/08/12 05:35:42;;;;;;;4.57;2.25;;;;;;;;;;5025604;28;20037;-83
2022/08/12 05:40:53;;;;;;;3.33;2.50;;;;;;;;;;5035703;28;20021;-83
2022/08/12 05:43:19;;;;;;;2.78;2.00;;;;;;;;;;5026568;28;20022;-83
2022/08/12 05:45:45;;;;;;;3.70;2.22;;;;;;;;;;5013027;28;20030;-83
2022/08/12 05:48:12;;;;;;;3.05;2.30;;;;;;;;;;5042365;28;20048;-84
2022/08/12 05:50:37;;;;;;;3.88;2.03;;;;;;;;;;5042256;28;20086;-85
2022/08/12 05:53:04;;;;;;;3.97;2.03;;;;;;;;;;5040041;28;20067;-82
2022/08/12 05:55:30;;;;;;;2.78;2.15;;;;;;;;;;5038069;28;20032;-81
2022/08/12 05:57:56;;;;;;;4.13;2.60;;;;;;;;;;5038134;28;20022;-82
2022/08/12 06:00:24;;;;;;;3.15;2.03;;;;;;;;;;5030282;28;20045;-82
2022/08/12 06:02:55;;;;;;;3.78;2.60;;;;;;;;;;5039124;28;20107;-85
2022/08/12 06:05:20;;;;;;;3.08;2.10;;;;;;;;;;5039273;28;20033;-84
2022/08/12 06:07:46;;;;;;;4.80;2.30;;;;;;;;;;5040199;28;20021;-84
2022/08/12 06:10:12;;;;;;;2.75;1.98;;;;;;;;;;5033923;28;20026;-84
2022/08/12 06:12:37;;;;;;;5.00;2.20;;;;;;;;;;5022552;28;20026;-84
2022/08/12 06:15:03;;;;;;;2.90;2.00;;;;;;;;;;5029174;28;20112;-83
2022/08/12 06:17:29;;;;;;;3.47;2.10;;;;;;;;;;5018108;28;20026;-82
2022/08/12 06:19:57;;;;;;;5.65;2.20;;;;;;;;;;5042560;28;20064;-82
2022/08/12 06:22:23;;;;;;;7.03;2.38;;;;;;;;;;5029589;28;20545;-84
2022/08/12 06:24:48;;;;;;;2.08;1.88;;;;;;;;;;5024767;28;20124;-84
2022/08/12 06:27:17;;;;;;;7.35;1.80;;;;;;;;;;5033604;28;20148;-84
2022/08/12 06:29:43;;;;;;;3.33;2.05;;;;;;;;;;5033094;28;20146;-84
2022/08/12 06:32:08;;;;;;;4.15;1.90;;;;;;;;;;5043571;28;20053;-85
2022/08/12 06:34:35;;;;;;;2.92;1.75;;;;;;;;;;5039552;28;20101;-81
2022/08/12 06:37:01;;;;;;;3.42;1.77;;;;;;;;;;5024908;28;20650;-83
2022/08/12 06:39:26;;;;;;;2.70;1.85;;;;;;;;;;5026498;28;20045;-83
2022/08/12 06:44:35;;;;;;;3.78;2.45;;;;;;;;;;5041619;28;20088;-81
2022/08/12 06:47:01;;;;;;;2.60;1.95;;;;;;;;;;5036817;28;20061;-82
2022/08/12 06:49:34;;;;;;;4.25;2.22;;;;;;;;;;5037369;28;20029;-82
2022/08/12 06:52:00;;;;;;;4.97;2.20;;;;;;;;;;5019625;28;20048;-82
2022/08/12 06:54:25;;;;;;;3.33;2.20;;;;;;;;;;5034604;28;20018;-82
2022/08/12 06:56:51;;;;;;;2.70;2.08;;;;;;;;;;5028497;28;20022;-84
2022/08/12 06:59:19;;;;;;;6.00;1.95;;;;;;;;;;5047710;28;20044;-83
2022/08/12 07:01:45;;;;;;;2.40;1.80;;;;;;;;;;5055923;28;20308;-82
2022/08/12 07:04:11;;;;;;;4.38;1.77;;;;;;;;;;5056098;28;20120;-82
2022/08/12 07:06:36;;;;;;;3.05;1.88;;;;;;;;;;5053958;28;20036;-83
2022/08/12 07:09:03;;;;;;;4.53;1.77;;;;;;;;;;5040637;28;20017;-83
2022/08/12 07:11:29;;;;;;;2.35;1.67;;;;;;;;;;5027367;28;20040;-85
2022/08/12 07:13:57;;;;;;;2.60;1.73;;;;;;;;;;5028426;28;20064;-81
2022/08/12 07:16:23;;;;;;;4.30;2.10;;;;;;;;;;4997296;28;20069;-83
2022/08/12 07:18:52;;;;;;;2.67;2.00;;;;;;;;;;5025768;28;20491;-85
2022/08/12 07:21:18;;;;;;;4.55;1.63;;;;;;;;;;5033960;28;20488;-83
2022/08/12 07:23:44;;;;;;;1.85;1.75;;;;;;;;;;5017469;28;20029;-84
2022/08/12 07:26:15;;;;;;;2.20;1.85;;;;;;;;;;5014425;28;20063;-85
2022/08/12 07:28:42;;;;;;;;;;;;;;;;;;5013368;28;20464;-83
2022/08/12 07:31:10;;;;;;;3.10;1.80;;;;;;;;;;5015997;28;19924;-83
2022/08/12 07:33:38;;;;;;;4.63;1.73;;;;;;;;;;5013939;28;20053;-84
2022/08/12 07:36:06;;;;;;;3.28;1.98;;;;;;;;;;5015157;28;20037;-84
2022/08/12 07:38:42;;;;;;;3.72;1.88;;;;;;;;;;5012886;28;20072;-83
2022/08/12 07:41:19;;;;;;;2.05;1.75;;;;;;;;;;5020720;28;20013;-84
2022/08/12 07:43:52;;;;;;;6.40;2.08;;;;;;;;;;5025037;28;20387;-83
2022/08/12 07:46:21;;;;;;;2.05;1.73;;;;;;;;;;5026237;28;20052;-86
2022/08/12 07:48:49;;;;;;;2.47;1.80;;;;;;;;;;5032728;28;20021;-83
2022/08/12 07:51:15;;;;;;;3.03;1.70;;;;;;;;;;5035036;28;20022;-83
2022/08/12 07:53:42;;;;;;;3.03;1.52;;;;;;;;;;5034603;28;20038;-84
2022/08/12 07:56:09;;;;;;;1.95;1.77;;;;;;;;;;5038530;28;20044;-84
2022/08/12 07:58:39;;;;;;;2.78;1.65;;;;;;;;;;5034127;28;20021;-81
2022/08/12 08:01:10;;;;;;;3.05;1.50;;;;;;;;;;5018171;28;20045;-84
2022/08/12 08:03:37;;;;;;;2.92;2.00;;;;;;;;;;5017491;28;20523;-82
2022/08/12 08:06:06;;;;;;;4.72;1.50;;;;;;;;;;5026214;28;20022;-82
2022/08/12 08:08:31;;;;;;;3.75;1.73;;;;;;;;;;5017795;28;20026;-83
2022/08/12 08:13:44;;;;;;;3.13;1.92;;;;;;;;;;5038410;28;20040;-85
2022/08/12 08:16:11;;;;;;;2.92;1.60;;;;;;;;;;5028334;28;20130;-83
2022/08/12 08:18:36;;;;;;;3.72;1.70;;;;;;;;;;5018358;28;20495;-84
2022/08/12 08:21:03;;;;;;;3.30;1.67;;;;;;;;;;5027066;28;20034;-84
2022/08/12 08:26:14;;;;;;;2.10;1.60;;;;;;;;;;5041165;28;20573;-84
2022/08/12 08:28:40;;;;;;;2.30;1.67;;;;;;;;;;5030684;28;20495;-82
2022/08/12 08:31:05;;;;;;;1.98;1.60;;;;;;;;;;5017722;28;20025;-83
2022/08/12 08:33:31;;;;;;;1.55;1.35;;;;;;;;;;5019620;28;20026;-83
2022/08/12 08:35:57;;;;;;;2.38;1.58;;;;;;;;;;5031401;28;20072;-83
2022/08/12 08:38:23;;;;;;;5.30;1.38;;;;;;;;;;5030158;28;20030;-83
2022/08/12 08:43:32;;;;;;;1.70;1.60;;;;;;;;;;5029617;28;20086;-85
2022/08/12 08:46:00;;;;;;;3.50;1.48;;;;;;;;;;5024520;28;20025;-83
2022/08/12 08:48:29;;;;;;;6.50;1.67;;;;;;;;;;5050002;28;20028;-83
2022/08/12 08:50:54;;;;;;;4.22;1.80;;;;;;;;;;5033288;28;20120;-84
2022/08/12 08:53:19;;;;;;;3.47;1.58;;;;;;;;;;5031532;28;20029;-84
2022/08/12 08:55:45;;;;;;;1.85;1.40;;;;;;;;;;5033245;28;20033;-83
2022/08/12 08:58:10;;;;;;;5.68;1.67;;;;;;;;;;5034091;28;20044;-83
2022/08/12 09:00:38;;;;;;;5.72;1.45;;;;;;;;;;5030321;28;20396;-84
2022/08/12 09:03:04;;;;;;;6.18;1.48;;;;;;;;;;5048680;28;20026;-84
2022/08/12 09:05:30;;;;;;;2.63;1.70;;;;;;;;;;5048651;28;20033;-84
2022/08/12 09:07:59;;;;;;;1.70;1.48;;;;;;;;;;5048561;28;20032;-85
2022/08/12 09:10:25;;;;;;;1.67;1.38;;;;;;;;;;5044121;28;20021;-84
2022/08/12 09:15:35;;;;;;;4.65;1.55;;;;;;;;;;5029604;28;20098;-84
2022/08/12 09:18:04;;;;;;;2.42;1.35;;;;;;;;;;5025960;28;20026;-83
2022/08/12 09:20:32;;;;;;;2.53;1.58;;;;;;;;;;5026817;28;20093;-84
2022/08/12 09:23:00;;;;;;;2.97;1.75;;;;;;;;;;5027516;28;20400;-85
2022/08/12 09:25:30;;;;;;;2.25;1.77;;;;;;;;;;5027813;28;20036;-83
2022/08/12 09:27:56;;;;;;;1.52;1.33;;;;;;;;;;5042505;28;20021;-84
2022/08/12 09:30:23;;;;;;;3.50;1.65;;;;;;;;;;5026682;28;20030;-84
2022/08/12 09:32:49;;;;;;;3.85;1.50;;;;;;;;;;5028299;28;20606;-84
2022/08/12 09:35:23;;;;;;;1.80;1.50;;;;;;;;;;5025146;28;20112;-83
2022/08/12 09:37:51;;;;;;;1.80;1.40;;;;;;;;;;5025067;28;20034;-84
2022/08/12 09:40:18;;;;;;;2.15;1.60;;;;;;;;;;5024605;28;20044;-83
2022/08/12 09:45:31;;;;;;;1.70;1.60;;;;;;;;;;5037559;28;20040;-83
2022/08/12 09:47:58;;;;;;;4.07;1.52;;;;;;;;;;5024630;28;20032;-84
2022/08/12 09:50:24;;;;;;;2.20;1.17;;;;;;;;;;5025498;28;20048;-83
2022/08/12 09:53:03;;;;;;;5.68;1.52;;;;;;;;;;5025625;28;20030;-84
2022/08/12 09:55:28;;;;;;;1.33;1.23;;;;;;;;;;5025045;28;20021;-82
2022/08/12 09:57:53;;;;;;;3.92;1.40;;;;;;;;;;5024270;28;20032;-83
2022/08/12 10:00:20;;;;;;;3.03;1.65;;;;;;;;;;5040985;28;20048;-83
2022/08/12 10:03:20;;;;;;;2.10;1.25;;;;;;;;;;5040613;28;20025;-84
2022/08/12 10:05:47;;;;;;;1.83;1.48;;;;;;;;;;5003981;28;20037;-83
2022/08/12 10:08:15;;;;;;;2.33;1.27;;;;;;;;;;5045902;28;20021;-82
2022/08/12 10:13:41;;;;;;;1.40;1.30;;;;;;;;;;5042992;28;20049;-83
2022/08/12 10:16:11;;;;;;;2.13;1.10;;;;;;;;;;5036474;28;20041;-83
2022/08/12 10:18:42;;;;;;;2.22;1.40;;;;;;;;;;5020117;28;20022;-83
2022/08/12 10:21:18;;;;;;;2.15;1.50;;;;;;;;;;5023457;28;20026;-83
2022/08/12 10:23:47;;;;;;;2.83;1.40;;;;;;;;;;5021838;28;20054;-84
2022/08/12 10:31:52;;;;;;;2.35;1.40;;;;;;;;;;5034212;28;20133;-83
2022/08/12 10:34:22;;;;;;;1.92;1.15;;;;;;;;;;5042672;28;20030;-85
2022/08/12 10:36:49;;;;;;;1.48;1.35;;;;;;;;;;5043109;28;20059;-85
2022/08/12 10:39:16;;;;;;;1.30;1.20;;;;;;;;;;5036928;28;20026;-84
2022/08/12 10:44:28;;;;;;;2.88;1.40;;;;;;;;;;5037345;28;20658;-85
2022/08/12 10:46:54;;;;;;;3.67;1.48;;;;;;;;;;5034775;28;20311;-86
2022/08/12 10:49:26;;;;;;;2.33;1.40;;;;;;;;;;5043563;28;20017;-84
2022/08/12 10:51:53;;;;;;;2.13;1.40;;;;;;;;;;5038901;28;20021;-83
2022/08/12 10:54:19;;;;;;;1.48;1.27;;;;;;;;;;5035048;28;20037;-84
2022/08/12 10:56:47;;;;;;;3.95;1.35;;;;;;;;;;5034693;28;20021;-85
2022/08/12 10:59:14;;;;;;;2.45;1.48;;;;;;;;;;5021952;28;20028;-85
2022/08/12 11:01:41;;;;;;;2.45;1.20;;;;;;;;;;5015387;28;20408;-85
2022/08/12 11:04:12;;;;;;;1.40;1.17;;;;;;;;;;5016027;28;20110;-85
2022/08/12 11:06:49;;;;;;;1.58;1.23;;;;;;;;;;5014616;28;20026;-85
2022/08/12 11:09:36;;;;;;;3.13;1.20;;;;;;;;;;5016180;28;20022;-85
2022/08/12 11:12:05;;;;;;;0.95;0.95;;;;;;;;;;5021562;28;20022;-84
2022/08/12 11:14:36;;;;;;;1.67;1.17;;;;;;;;;;5036226;28;20711;-84
2022/08/12 11:17:06;;;;;;;1.80;1.30;;;;;;;;;;5031266;28;20076;-83
2022/08/12 11:19:35;;;;;;;1.20;1.10;;;;;;;;;;5035441;28;20025;-84
2022/08/12 11:22:02;;;;;;;1.15;1.10;;;;;;;;;;5036226;28;20029;-84
2022/08/12 11:24:28;;;;;;;1.30;1.20;;;;;;;;;;5024074;28;20021;-84
2022/08/12 11:26:54;;;;;;;1.67;1.48;;;;;;;;;;5034742;28;20044;-84
2022/08/12 11:29:22;;;;;;;3.30;1.30;;;;;;;;;;5015585;28;20096;-85
2022/08/12 11:31:48;;;;;;;2.08;1.42;;;;;;;;;;5030578;28;20085;-83
2022/08/12 11:34:13;;;;;;;1.02;1.00;;;;;;;;;;5025437;28;20396;-85
2022/08/12 11:37:06;;;;;;;1.15;0.98;;;;;;;;;;5017918;28;20037;-86
2022/08/12 11:39:32;;;;;;;3.67;1.20;;;;;;;;;;5018960;28;20026;-84
2022/08/12 11:41:59;;;;;;;4.28;1.45;;;;;;;;;;5019086;28;20071;-85
2022/08/12 11:44:24;;;;;;;1.85;1.00;;;;;;;;;;5019430;28;20032;-83
2022/08/12 11:46:52;;;;;;;3.40;1.30;;;;;;;;;;5016962;28;20017;-85
2022/08/12 11:49:18;;;;;;;2.75;1.60;;;;;;;;;;5001605;28;20385;-82
2022/08/12 11:51:43;;;;;;;2.65;1.23;;;;;;;;;;5018964;28;20037;-83
2022/08/12 11:54:09;;;;;;;3.58;1.30;;;;;;;;;;5018970;28;20088;-83
2022/08/12 11:56:34;;;;;;;1.92;1.10;;;;;;;;;;5000797;28;20228;-81
2022/08/12 11:58:59;;;;;;;1.60;1.35;;;;;;;;;;5016489;28;20022;-82
2022/08/12 12:01:25;;;;;;;1.30;1.13;;;;;;;;;;5018853;28;20476;-84
2022/08/12 12:03:51;;;;;;;1.65;1.55;;;;;;;;;;5017603;28;20028;-84
2022/08/12 12:06:19;;;;;;;1.95;1.15;;;;;;;;;;5019148;28;20038;-84
2022/08/12 12:08:46;;;;;;;2.00;1.20;;;;;;;;;;5017441;28;20032;-83
2022/08/12 12:11:11;;;;;;;3.63;1.20;;;;;;;;;;5027177;28;20032;-84
2022/08/12 12:13:36;;;;;;;2.10;1.02;;;;;;;;;;5035359;28;20033;-83
2022/08/12 12:16:02;;;;;;;5.65;1.40;;;;;;;;;;5029134;28;20053;-86
2022/08/12 12:18:29;;;;;;;1.95;1.30;;;;;;;;;;5036676;28;20033;-84
2022/08/12 12:20:57;;;;;;;2.10;1.25;;;;;;;;;;5038195;28;20045;-84
2022/08/12 12:23:22;;;;;;;2.92;1.48;;;;;;;;;;5027684;28;20105;-83
2022/08/12 12:25:48;;;;;;;2.13;1.20;;;;;;;;;;5036757;28;20064;-85
2022/08/12 12:28:14;;;;;;;2.65;1.38;;;;;;;;;;5038288;28;20034;-85
2022/08/12 12:30:40;;;;;;;2.42;1.45;;;;;;;;;;5038659;28;20025;-85
2022/08/12 12:33:07;;;;;;;1.33;1.23;;;;;;;;;;5019851;28;20029;-83
2022/08/12 12:35:33;;;;;;;1.10;1.10;;;;;;;;;;5037114;28;20053;-84
2022/08/12 12:38:03;;;;;;;2.65;1.10;;;;;;;;;;5037016;28;20021;-82
2022/08/12 12:40:30;;;;;;;2.55;1.42;;;;;;;;;;5028786;28;20024;-81
2022/08/12 12:42:57;;;;;;;1.20;1.10;;;;;;;;;;5012169;28;20395;-81
2022/08/12 12:45:23;;;;;;;1.80;1.38;;;;;;;;;;5030750;28;20043;-84
2022/08/12 12:47:57;;;;;;;3.42;1.45;;;;;;;;;;5036407;28;20048;-83
2022/08/12 12:50:24;;;;;;;1.67;1.52;;;;;;;;;;5037275;28;20033;-83
2022/08/12 12:52:50;;;;;;;1.73;1.63;;;;;;;;;;5019040;28;20036;-82
2022/08/12 12:55:16;;;;;;;2.42;1.45;;;;;;;;;;5029762;28;20467;-83
2022/08/12 12:57:42;;;;;;;2.72;1.17;;;;;;;;;;5037466;28;20463;-83
2022/08/12 13:00:14;;;;;;;3.10;1.52;;;;;;;;;;5025376;28;20037;-83
2022/08/12 13:02:51;;;;;;;4.35;1.35;;;;;;;;;;5035778;28;20025;-83
2022/08/12 13:05:20;;;;;;;3.08;1.20;;;;;;;;;;5038368;28;20033;-82
2022/08/12 13:07:46;;;;;;;3.00;1.33;;;;;;;;;;5036815;28;20033;-84
2022/08/12 13:10:12;;;;;;;1.85;1.45;;;;;;;;;;5015484;28;20021;-84
2022/08/12 13:12:38;;;;;;;3.85;1.10;;;;;;;;;;5030719;28;20108;-82
2022/08/12 13:15:07;;;;;;;1.40;1.27;;;;;;;;;;5035893;28;20033;-83
2022/08/12 13:17:33;;;;;;;1.13;1.10;;;;;;;;;;5037195;28;20022;-83
2022/08/12 13:20:06;;;;;;;1.40;1.30;;;;;;;;;;5036634;28;20022;-83
2022/08/12 13:22:31;;;;;;;2.35;1.50;;;;;;;;;;5037154;28;20052;-83
2022/08/12 13:24:58;;;;;;;1.92;1.50;;;;;;;;;;5029869;28;20021;-84
2022/08/12 13:27:28;;;;;;;3.17;1.40;;;;;;;;;;5036923;28;20037;-83
2022/08/12 13:29:53;;;;;;;1.67;1.30;;;;;;;;;;5027581;28;20026;-84
2022/08/12 13:32:20;;;;;;;2.75;1.40;;;;;;;;;;5005108;28;20093;-84
2022/08/12 13:34:52;;;;;;;3.30;1.50;;;;;;;;;;5018193;28;20427;-83
2022/08/12 13:37:27;;;;;;;3.53;1.20;;;;;;;;;;5017247;28;20104;-83
2022/08/12 13:39:52;;;;;;;2.38;1.40;;;;;;;;;;5024170;28;20433;-83
2022/08/12 13:42:21;;;;;;;5.72;1.63;;;;;;;;;;5025121;28;20074;-83
2022/08/12 13:44:49;;;;;;;1.75;1.05;;;;;;;;;;5035652;28;20040;-84
2022/08/12 13:47:15;;;;;;;1.35;1.10;;;;;;;;;;5023679;28;20030;-83
2022/08/12 13:49:41;;;;;;;2.38;1.30;;;;;;;;;;5017268;28;20052;-82
2022/08/12 13:52:07;;;;;;;3.65;1.63;;;;;;;;;;4999314;28;20108;-82
2022/08/12 13:54:33;;;;;;;1.98;1.40;;;;;;;;;;5017765;28;20026;-84
2022/08/12 13:56:58;;;;;;;3.78;1.58;;;;;;;;;;5017230;28;20036;-84
2022/08/12 13:59:24;;;;;;;1.27;1.15;;;;;;;;;;5017028;28;20026;-84
2022/08/12 14:01:50;;;;;;;2.30;1.15;;;;;;;;;;5027987;28;20063;-82
2022/08/12 14:04:16;;;;;;;1.45;1.35;;;;;;;;;;5037622;28;20100;-83
2022/08/12 14:06:42;;;;;;;2.17;1.13;;;;;;;;;;5036843;28;20026;-84
2022/08/12 14:09:08;;;;;;;3.03;1.50;;;;;;;;;;5036018;28;20053;-83
2022/08/12 14:11:34;;;;;;;2.35;1.25;;;;;;;;;;5025777;28;20044;-83
2022/08/12 14:13:59;;;;;;;1.15;1.10;;;;;;;;;;5028334;28;20017;-83
2022/08/12 14:16:24;;;;;;;2.60;1.40;;;;;;;;;;5028801;28;20361;-82
2022/08/12 14:18:50;;;;;;;2.00;1.25;;;;;;;;;;5034618;28;20033;-83
2022/08/12 14:21:15;;;;;;;3.03;1.40;;;;;;;;;;5018987;28;20025;-83
2022/08/12 14:23:48;;;;;;;1.85;1.10;;;;;;;;;;5028392;28;20431;-82
2022/08/12 14:26:16;;;;;;;2.75;2.10;;;;;;;;;;5016096;28;20488;-81
2022/08/12 14:28:42;;;;;;;3.53;1.20;;;;;;;;;;5015093;28;20457;-82
2022/08/12 14:31:12;;;;;;;2.75;1.40;;;;;;;;;;5023419;28;20085;-82
2022/08/12 14:33:47;;;;;;;1.30;1.20;;;;;;;;;;5036385;28;20018;-82
2022/08/12 14:36:17;;;;;;;2.22;1.10;;;;;;;;;;5025962;28;20274;-82
2022/08/12 14:38:44;;;;;;;3.17;1.17;;;;;;;;;;5015530;28;20025;-84
2022/08/12 14:41:12;;;;;;;2.70;1.30;;;;;;;;;;5024032;28;20511;-83
2022/08/12 14:43:38;;;;;;;1.25;1.08;;;;;;;;;;5049828;28;20025;-82
2022/08/12 14:46:11;;;;;;;1.50;1.30;;;;;;;;;;5040721;28;20014;-82
2022/08/12 14:48:43;;;;;;;2.92;1.30;;;;;;;;;;5033292;28;20017;-82
2022/08/12 14:51:09;;;;;;;2.97;1.38;;;;;;;;;;5034999;28;20026;-81
2022/08/12 14:53:35;;;;;;;3.70;1.50;;;;;;;;;;5032735;28;20037;-80
2022/08/12 14:56:01;;;;;;;1.85;1.10;;;;;;;;;;5032883;28;20089;-81
2022/08/12 14:58:28;;;;;;;1.10;1.00;;;;;;;;;;5029850;28;20048;-81
2022/08/12 15:03:38;;;;;;;1.15;1.05;;;;;;;;;;5037106;28;20032;-83
2022/08/12 15:06:07;;;;;;;1.20;1.10;;;;;;;;;;5040829;28;20029;-83
2022/08/12 15:08:38;;;;;;;1.67;1.23;;;;;;;;;;5039728;28;20028;-84
2022/08/12 15:11:11;;;;;;;1.38;1.27;;;;;;;;;;5030322;28;20033;-82
2022/08/12 15:13:36;;;;;;;1.40;1.15;;;;;;;;;;5037310;28;20068;-83
2022/08/12 15:16:02;;;;;;;2.33;1.38;;;;;;;;;;5030565;28;20017;-82
2022/08/12 15:18:29;;;;;;;2.83;1.20;;;;;;;;;;5036707;28;20029;-82
2022/08/12 15:20:57;;;;;;;1.45;1.02;;;;;;;;;;5038421;28;20025;-82
2022/08/12 15:23:24;;;;;;;1.10;1.00;;;;;;;;;;5036627;28;20475;-83
2022/08/12 15:25:52;;;;;;;1.05;0.98;;;;;;;;;;5018198;28;20396;-83
2022/08/12 15:28:26;;;;;;;1.42;1.15;;;;;;;;;;5018955;28;20025;-83
2022/08/12 15:30:52;;;;;;;1.00;1.00;;;;;;;;;;5019029;28;20018;-83
2022/08/12 15:33:18;;;;;;;2.80;1.15;;;;;;;;;;5002846;28;20049;-83
2022/08/12 15:35:44;;;;;;;2.33;0.80;;;;;;;;;;5020144;28;20511;-82
2022/08/12 15:38:12;;;;;;;2.05;1.17;;;;;;;;;;5018850;28;20026;-82
2022/08/12 15:40:40;;;;;;;2.10;1.23;;;;;;;;;;5018476;28;20496;-82
2022/08/12 15:43:07;;;;;;;2.15;1.33;;;;;;;;;;5031731;28;20116;-82
2022/08/12 15:45:36;;;;;;;1.02;1.02;;;;;;;;;;5029607;28;20026;-82
2022/08/12 15:48:02;;;;;;;1.75;1.00;;;;;;;;;;5020745;28;20029;-84
2022/08/12 15:50:28;;;;;;;2.38;1.23;;;;;;;;;;5039301;28;20060;-82
2022/08/12 15:52:55;;;;;;;2.33;1.25;;;;;;;;;;5038766;28;20025;-84
2022/08/12 15:55:23;;;;;;;2.85;1.10;;;;;;;;;;5038964;28;20026;-82
2022/08/12 15:57:52;;;;;;;1.20;1.10;;;;;;;;;;5022595;28;20037;-82
2022/08/12 16:00:37;;;;;;;5.32;1.20;;;;;;;;;;5019665;28;20018;-84
2022/08/12 16:03:06;;;;;;;1.13;0.90;;;;;;;;;;5019291;28;20057;-84
2022/08/12 16:05:33;;;;;;;1.65;1.20;;;;;;;;;;5018989;28;20032;-83
2022/08/12 16:07:59;;;;;;;1.33;0.82;;;;;;;;;;5017619;28;20477;-82
2022/08/12 16:10:27;;;;;;;3.50;1.15;;;;;;;;;;5025878;28;20033;-83
2022/08/12 16:12:55;;;;;;;3.75;1.10;;;;;;;;;;5026927;28;20017;-84
2022/08/12 16:15:24;;;;;;;1.17;1.10;;;;;;;;;;5023731;28;20042;-83
2022/08/12 16:17:50;;;;;;;2.10;1.00;;;;;;;;;;5019583;28;20045;-83
2022/08/12 16:20:22;;;;;;;1.95;1.23;;;;;;;;;;5039498;28;20036;-82
2022/08/12 16:22:48;;;;;;;4.30;1.30;;;;;;;;;;5040212;28;20040;-82
2022/08/12 16:25:14;;;;;;;1.83;1.10;;;;;;;;;;5017669;28;20025;-82
2022/08/12 16:27:40;;;;;;;2.72;1.38;;;;;;;;;;5020069;28;20368;-82
2022/08/12 16:30:07;;;;;;;3.70;1.20;;;;;;;;;;5000910;28;20018;-83
2022/08/12 16:32:34;;;;;;;3.63;1.00;;;;;;;;;;5017314;28;20049;-82
2022/08/12 16:35:00;;;;;;;3.22;1.23;;;;;;;;;;5017390;28;20285;-82
2022/08/12 16:37:30;;;;;;;3.08;1.30;;;;;;;;;;5018053;28;20060;-82
2022/08/12 16:39:56;;;;;;;2.42;1.00;;;;;;;;;;5017492;28;20030;-83
2022/08/12 16:42:22;;;;;;;2.10;1.27;;;;;;;;;;5018102;28;20022;-83
2022/08/12 16:44:47;;;;;;;0.88;0.88;;;;;;;;;;5026228;28;20055;-83
2022/08/12 16:47:15;;;;;;;2.83;1.15;;;;;;;;;;5031911;28;20103;-82